createdAt,value
2019-04-30T00:01:58.871Z,26.03
2019-04-30T00:04:37.589Z,28.20
2019-04-30T00:07:01.816Z,29.50
2019-04-30T00:09:31.974Z,33.23
2019-04-30T00:12:01.472Z,32.63
2019-04-30T00:14:36.895Z,31.83
2019-04-30T00:17:01.855Z,32.60
2019-04-30T00:19:31.130Z,31.57
2019-04-30T00:22:00.700Z,32.00
2019-04-30T00:24:30.099Z,28.97
2019-04-30T00:26:59.386Z,31.17
2019-04-30T00:29:30.999Z,29.07
2019-04-30T00:32:04.560Z,30.03
2019-04-30T00:34:34.901Z,30.10
2019-04-30T00:37:01.801Z,32.23
2019-04-30T00:39:31.084Z,33.00
2019-04-30T00:42:00.384Z,31.30
2019-04-30T00:44:29.682Z,32.57
2019-04-30T00:47:00.678Z,31.97
2019-04-30T00:49:31.834Z,32.83
2019-04-30T00:52:01.107Z,32.17
2019-04-30T00:54:30.950Z,33.90
2019-04-30T00:57:04.449Z,32.77
2019-04-30T00:59:31.524Z,32.87
2019-04-30T01:02:20.109Z,33.83
2019-04-30T01:04:48.461Z,34.93
2019-04-30T01:07:17.760Z,34.93
2019-04-30T01:09:49.865Z,33.23
2019-04-30T01:12:27.581Z,32.77
2019-04-30T01:14:49.775Z,34.33
2019-04-30T01:17:19.130Z,31.97
2019-04-30T01:19:51.123Z,34.07
2019-04-30T01:22:27.742Z,35.30
2019-04-30T01:24:50.692Z,30.10
2019-04-30T01:27:20.175Z,31.17
2019-04-30T01:29:49.823Z,32.97
2019-04-30T01:32:20.969Z,32.83
2019-04-30T01:34:53.741Z,31.30
2019-04-30T01:37:28.443Z,35.90
2019-04-30T01:39:52.171Z,35.27
2019-04-30T01:42:22.919Z,36.20
2019-04-30T01:44:53.900Z,37.73
2019-04-30T01:47:27.685Z,32.87
2019-04-30T01:50:01.048Z,33.23
2019-04-30T01:52:46.656Z,32.33
2019-04-30T01:55:16.001Z,32.30
2019-04-30T01:58:08.743Z,33.70
2019-04-30T02:00:56.713Z,33.67
2019-04-30T02:03:25.986Z,34.50
2019-04-30T02:05:55.272Z,39.63
2019-04-30T02:08:24.561Z,36.37
2019-04-30T02:10:53.866Z,35.50
2019-04-30T02:13:23.163Z,33.60
2019-04-30T02:15:52.519Z,34.93
2019-04-30T02:18:21.836Z,33.13
2019-04-30T02:20:51.148Z,35.20
2019-04-30T02:23:20.456Z,37.87
2019-04-30T02:25:49.775Z,37.13
2019-04-30T02:28:19.157Z,37.43
2019-04-30T02:33:31.077Z,35.83
2019-04-30T02:36:19.867Z,37.53
2019-04-30T02:38:51.724Z,32.80
2019-04-30T02:41:22.311Z,34.37
2019-04-30T02:43:54.306Z,37.60
2019-04-30T02:46:26.007Z,34.10
2019-04-30T02:48:59.759Z,37.23
2019-04-30T02:51:30.654Z,32.33
2019-04-30T02:54:23.873Z,34.03
2019-04-30T02:57:06.857Z,33.07
2019-04-30T02:59:56.544Z,38.30
2019-04-30T03:02:29.000Z,34.77
2019-04-30T03:05:00.127Z,37.90
2019-04-30T03:07:29.566Z,39.57
2019-04-30T03:09:59.944Z,38.73
2019-04-30T03:12:33.185Z,38.37
2019-04-30T03:15:00.622Z,35.43
2019-04-30T03:18:04.352Z,38.90
2019-04-30T03:21:01.505Z,36.83
2019-04-30T03:23:30.861Z,37.27
2019-04-30T03:26:00.312Z,35.27
2019-04-30T03:28:30.234Z,38.27
2019-04-30T03:31:04.011Z,35.13
2019-04-30T03:33:32.562Z,35.57
2019-04-30T03:36:02.625Z,36.13
2019-04-30T03:38:32.185Z,41.13
2019-04-30T03:41:01.470Z,36.70
2019-04-30T03:43:30.731Z,38.00
2019-04-30T03:46:02.856Z,41.77
2019-04-30T03:48:32.878Z,36.03
2019-04-30T03:51:02.150Z,38.00
2019-04-30T03:53:31.468Z,35.80
2019-04-30T03:56:01.440Z,35.07
2019-04-30T03:58:30.933Z,34.17
2019-04-30T04:01:10.363Z,35.30
2019-04-30T04:04:00.342Z,37.90
2019-04-30T04:06:35.290Z,36.20
2019-04-30T04:09:36.577Z,36.93
2019-04-30T04:12:25.029Z,39.60
2019-04-30T04:14:54.561Z,37.90
2019-04-30T04:17:24.034Z,37.33
2019-04-30T04:19:53.329Z,37.43
2019-04-30T04:22:23.067Z,39.57
2019-04-30T04:24:52.423Z,36.40
2019-04-30T04:27:22.072Z,39.33
2019-04-30T04:29:51.503Z,40.53
2019-04-30T04:32:24.262Z,39.40
2019-04-30T04:34:51.796Z,35.37
2019-04-30T04:37:21.118Z,37.07
2019-04-30T04:39:52.255Z,35.67
2019-04-30T04:42:21.540Z,35.97
2019-04-30T04:44:50.866Z,35.53
2019-04-30T04:47:20.470Z,33.13
2019-04-30T04:49:53.292Z,34.30
2019-04-30T04:52:22.014Z,33.40
2019-04-30T04:54:51.619Z,37.00
2019-04-30T04:57:22.649Z,31.63
2019-04-30T04:59:53.142Z,33.17
2019-04-30T05:02:50.659Z,32.23
2019-04-30T05:05:20.414Z,33.93
2019-04-30T05:07:50.347Z,30.37
2019-04-30T05:10:23.078Z,32.20
2019-04-30T05:12:53.387Z,28.33
2019-04-30T05:15:23.104Z,27.33
2019-04-30T05:17:53.969Z,29.83
2019-04-30T05:20:23.252Z,28.00
2019-04-30T05:22:54.260Z,32.03
2019-04-30T05:25:25.080Z,33.17
2019-04-30T05:27:54.980Z,29.73
2019-04-30T05:30:24.899Z,32.07
2019-04-30T05:32:54.871Z,28.97
2019-04-30T05:35:24.219Z,27.30
2019-04-30T05:37:53.482Z,28.93
2019-04-30T05:40:23.638Z,28.47
2019-04-30T05:42:52.922Z,27.23
2019-04-30T05:45:22.233Z,25.93
2019-04-30T05:47:51.630Z,25.07
2019-04-30T05:50:20.932Z,24.70
2019-04-30T05:52:50.243Z,24.87
2019-04-30T05:55:20.380Z,24.47
2019-04-30T05:57:55.817Z,25.40
2019-04-30T06:00:21.147Z,20.77
2019-04-30T06:02:51.851Z,20.57
2019-04-30T06:05:21.141Z,20.03
2019-04-30T06:07:51.977Z,19.60
2019-04-30T06:10:40.446Z,20.93
2019-04-30T06:13:16.777Z,19.60
2019-04-30T06:16:05.160Z,20.67
2019-04-30T06:18:34.426Z,23.73
2019-04-30T06:21:03.908Z,24.00
2019-04-30T06:23:33.227Z,22.57
2019-04-30T06:26:09.878Z,21.47
2019-04-30T06:28:34.667Z,22.03
2019-04-30T06:31:04.401Z,22.67
2019-04-30T06:33:33.910Z,21.83
2019-04-30T06:36:03.622Z,19.63
2019-04-30T06:38:32.915Z,19.50
2019-04-30T06:41:02.220Z,17.87
2019-04-30T06:43:31.625Z,21.13
2019-04-30T06:46:01.037Z,18.17
2019-04-30T06:48:30.512Z,20.23
2019-04-30T06:50:59.808Z,17.43
2019-04-30T06:53:29.357Z,19.40
2019-04-30T06:55:59.834Z,16.53
2019-04-30T06:58:29.323Z,17.67
2019-04-30T07:00:59.610Z,20.33
2019-04-30T07:03:30.860Z,16.23
2019-04-30T07:06:00.829Z,15.40
2019-04-30T07:08:55.683Z,14.53
2019-04-30T07:11:31.075Z,13.93
2019-04-30T07:14:00.383Z,16.87
2019-04-30T07:16:29.987Z,12.90
2019-04-30T07:18:59.358Z,12.43
2019-04-30T07:24:00.817Z,12.07
2019-04-30T07:26:30.130Z,24.57
2019-04-30T07:29:02.434Z,12.23
2019-04-30T07:31:31.968Z,12.07
2019-04-30T07:34:01.332Z,16.10
2019-04-30T07:36:45.229Z,15.50
2019-04-30T07:39:01.668Z,15.80
2019-04-30T07:41:31.363Z,15.13
2019-04-30T07:44:00.704Z,19.33
2019-04-30T07:46:34.758Z,17.23
2019-04-30T07:49:01.055Z,19.77
2019-04-30T07:51:32.273Z,21.60
2019-04-30T07:54:01.648Z,19.00
2019-04-30T07:56:37.315Z,20.63
2019-04-30T07:59:11.034Z,18.87
2019-04-30T08:01:58.138Z,21.67
2019-04-30T08:04:36.210Z,17.17
2019-04-30T08:07:06.482Z,17.53
2019-04-30T08:09:35.717Z,12.67
2019-04-30T08:09:39.860Z,18.97
2019-04-30T08:12:08.930Z,20.50
2019-04-30T08:14:39.066Z,16.37
2019-04-30T08:17:08.918Z,19.80
2019-04-30T08:19:38.800Z,19.07
2019-04-30T08:22:09.622Z,18.93
2019-04-30T08:24:39.171Z,14.90
2019-04-30T08:27:09.711Z,16.63
2019-04-30T08:29:39.533Z,17.03
2019-04-30T08:32:09.191Z,14.53
2019-04-30T08:34:39.405Z,15.43
2019-04-30T08:37:17.135Z,14.83
2019-04-30T08:39:42.501Z,13.30
2019-04-30T08:42:11.905Z,13.83
2019-04-30T08:44:41.180Z,15.33
2019-04-30T08:47:10.479Z,14.47
2019-04-30T08:49:40.624Z,13.27
2019-04-30T08:52:10.751Z,11.50
2019-04-30T08:54:40.335Z,11.70
2019-04-30T08:57:09.618Z,12.30
2019-04-30T08:59:39.475Z,13.83
2019-04-30T09:02:16.001Z,12.90
2019-04-30T09:04:39.960Z,13.47
2019-04-30T09:07:10.223Z,14.07
2019-04-30T09:09:39.648Z,13.83
2019-04-30T09:12:09.965Z,13.07
2019-04-30T09:14:40.651Z,12.47
2019-04-30T09:17:10.150Z,12.53
2019-04-30T09:19:39.460Z,12.80
2019-04-30T09:22:14.976Z,13.83
2019-04-30T09:24:40.926Z,13.03
2019-04-30T09:27:10.811Z,12.10
2019-04-30T09:29:40.319Z,13.23
2019-04-30T09:32:09.715Z,12.60
2019-04-30T09:34:40.427Z,13.43
2019-04-30T09:37:09.863Z,14.27
2019-04-30T09:39:39.363Z,11.73
2019-04-30T09:42:09.236Z,16.90
2019-04-30T09:44:39.118Z,13.67
2019-04-30T09:47:08.963Z,11.03
2019-04-30T09:49:39.140Z,12.43
2019-04-30T09:52:09.877Z,10.93
2019-04-30T09:54:39.953Z,13.40
2019-04-30T09:57:11.455Z,15.17
2019-04-30T09:59:41.876Z,10.33
2019-04-30T10:02:29.888Z,11.03
2019-04-30T10:04:59.681Z,10.50
2019-04-30T10:07:29.410Z,13.43
2019-04-30T10:09:59.952Z,13.03
2019-04-30T10:12:29.536Z,12.00
2019-04-30T10:14:59.257Z,12.30
2019-04-30T10:17:36.327Z,12.63
2019-04-30T10:20:08.605Z,9.83
2019-04-30T10:22:39.912Z,10.73
2019-04-30T10:25:09.488Z,13.27
2019-04-30T10:27:38.980Z,11.77
2019-04-30T10:30:10.206Z,12.03
2019-04-30T10:32:39.627Z,11.37
2019-04-30T10:35:09.165Z,13.93
2019-04-30T10:37:38.819Z,11.13
2019-04-30T10:40:10.322Z,11.40
2019-04-30T10:42:39.765Z,10.93
2019-04-30T10:45:10.378Z,11.57
2019-04-30T10:47:39.679Z,12.53
2019-04-30T10:50:10.370Z,12.97
2019-04-30T10:52:39.715Z,11.00
2019-04-30T10:55:09.540Z,10.60
2019-04-30T10:57:39.699Z,10.30
2019-04-30T11:00:13.788Z,12.30
2019-04-30T11:02:43.119Z,11.20
2019-04-30T11:05:13.227Z,10.20
2019-04-30T11:07:42.547Z,10.93
2019-04-30T11:10:12.489Z,12.50
2019-04-30T11:12:41.837Z,10.40
2019-04-30T11:15:11.299Z,11.83
2019-04-30T11:17:40.742Z,10.13
2019-04-30T11:20:10.683Z,11.00
2019-04-30T11:22:40.663Z,12.90
2019-04-30T11:25:10.480Z,9.30
2019-04-30T11:27:40.994Z,11.20
2019-04-30T11:30:20.310Z,9.03
2019-04-30T11:32:43.118Z,11.93
2019-04-30T11:35:14.370Z,8.63
2019-04-30T11:37:43.727Z,8.23
2019-04-30T11:40:13.780Z,9.23
2019-04-30T11:42:43.251Z,8.17
2019-04-30T11:45:15.029Z,9.67
2019-04-30T11:47:53.276Z,8.17
2019-04-30T11:50:15.669Z,8.97
2019-04-30T11:52:45.080Z,8.43
2019-04-30T11:55:15.794Z,8.30
2019-04-30T11:57:45.187Z,8.60
2019-04-30T12:00:20.200Z,8.00
2019-04-30T12:02:52.931Z,9.97
2019-04-30T12:05:30.034Z,8.83
2019-04-30T12:08:26.285Z,8.83
2019-04-30T12:10:58.570Z,8.33
2019-04-30T12:13:29.718Z,9.73
2019-04-30T12:15:59.218Z,7.53
2019-04-30T12:18:30.470Z,7.03
2019-04-30T12:20:59.791Z,8.73
2019-04-30T12:23:29.077Z,7.07
2019-04-30T12:26:01.023Z,7.53
2019-04-30T12:28:29.767Z,7.40
2019-04-30T12:30:59.183Z,8.83
2019-04-30T12:33:28.564Z,6.47
2019-04-30T12:35:59.569Z,8.87
2019-04-30T12:38:29.846Z,8.10
2019-04-30T12:40:59.372Z,14.13
2019-04-30T12:43:28.627Z,7.23
2019-04-30T12:46:03.471Z,9.23
2019-04-30T12:48:50.735Z,6.73
2019-04-30T12:51:45.856Z,6.93
2019-04-30T12:54:21.101Z,6.93
2019-04-30T12:57:10.834Z,6.30
2019-04-30T12:59:39.238Z,7.20
2019-04-30T13:02:09.124Z,8.50
2019-04-30T13:04:39.376Z,8.23
2019-04-30T13:07:10.403Z,7.93
2019-04-30T13:09:40.793Z,6.57
2019-04-30T13:12:12.235Z,6.47
2019-04-30T13:14:51.373Z,5.43
2019-04-30T13:17:12.868Z,6.63
2019-04-30T13:19:42.170Z,5.33
2019-04-30T13:22:11.507Z,6.93
2019-04-30T13:24:40.900Z,5.97
2019-04-30T13:27:23.682Z,7.20
2019-04-30T13:30:11.919Z,8.80
2019-04-30T13:32:49.413Z,8.70
2019-04-30T13:35:19.095Z,6.77
2019-04-30T13:38:00.691Z,10.83
2019-04-30T13:41:08.895Z,10.33
2019-04-30T13:43:56.148Z,4.17
2019-04-30T13:46:26.178Z,5.23
2019-04-30T13:48:55.486Z,5.70
2019-04-30T13:51:24.783Z,8.60
2019-04-30T13:53:54.077Z,5.80
2019-04-30T13:56:23.477Z,4.87
2019-04-30T13:58:52.777Z,8.80
2019-04-30T14:01:22.079Z,5.40
2019-04-30T14:04:19.504Z,7.83
2019-04-30T14:07:10.757Z,6.63
2019-04-30T14:09:40.222Z,6.17
2019-04-30T14:12:09.564Z,4.87
2019-04-30T14:14:39.590Z,6.77
2019-04-30T14:17:09.414Z,7.10
2019-04-30T14:19:38.810Z,11.43
2019-04-30T14:22:09.589Z,5.50
2019-04-30T14:24:40.123Z,8.90
2019-04-30T14:27:09.506Z,4.70
2019-04-30T14:29:39.563Z,7.40
2019-04-30T14:32:08.994Z,6.33
2019-04-30T14:34:39.517Z,8.13
2019-04-30T14:37:08.995Z,10.83
2019-04-30T14:39:38.608Z,6.77
2019-04-30T14:42:10.741Z,6.00
2019-04-30T14:44:40.344Z,3.93
2019-04-30T14:47:30.999Z,7.53
2019-04-30T14:50:09.862Z,4.63
2019-04-30T14:52:46.403Z,3.60
2019-04-30T14:55:43.590Z,3.20
2019-04-30T14:58:34.444Z,4.90
2019-04-30T15:01:35.155Z,2.73
2019-04-30T15:04:04.559Z,2.63
2019-04-30T15:06:34.954Z,4.33
2019-04-30T15:09:05.821Z,2.70
2019-04-30T15:11:35.267Z,3.47
2019-04-30T15:14:04.852Z,2.10
2019-04-30T15:16:34.186Z,4.60
2019-04-30T15:19:03.453Z,5.20
2019-04-30T15:21:32.752Z,3.40
2019-04-30T15:24:17.127Z,3.27
2019-04-30T15:26:46.427Z,3.27
2019-04-30T15:29:16.262Z,2.40
2019-04-30T15:31:45.830Z,3.90
2019-04-30T15:34:16.256Z,3.37
2019-04-30T15:36:45.522Z,1.90
2019-04-30T15:39:36.255Z,1.57
2019-04-30T15:42:05.962Z,2.40
2019-04-30T15:44:40.325Z,4.13
2019-04-30T15:47:08.951Z,2.40
2019-04-30T15:49:37.920Z,2.57
2019-04-30T15:52:10.774Z,2.60
2019-04-30T15:54:39.362Z,5.43
2019-04-30T15:57:08.992Z,4.00
2019-04-30T15:59:40.476Z,4.33
2019-04-30T16:02:24.258Z,2.37
2019-04-30T16:05:15.560Z,4.47
2019-04-30T16:07:54.723Z,4.33
2019-04-30T16:10:41.558Z,6.87
2019-04-30T16:13:19.527Z,3.07
2019-04-30T16:15:49.243Z,3.00
2019-04-30T16:18:19.606Z,6.53
2019-04-30T16:20:49.874Z,2.17
2019-04-30T16:23:19.468Z,3.33
2019-04-30T16:25:48.850Z,1.43
2019-04-30T16:28:19.591Z,4.80
2019-04-30T16:30:49.091Z,3.73
2019-04-30T16:33:19.546Z,2.40
2019-04-30T16:35:51.007Z,2.67
2019-04-30T16:38:20.929Z,2.03
2019-04-30T16:40:50.372Z,1.43
2019-04-30T16:43:20.786Z,2.63
2019-04-30T16:45:51.162Z,1.20
2019-04-30T16:48:20.465Z,1.33
2019-04-30T16:50:51.196Z,2.00
2019-04-30T16:53:20.703Z,1.77
2019-04-30T16:55:50.718Z,2.00
2019-04-30T16:58:20.071Z,1.53
2019-04-30T17:00:49.621Z,2.90
2019-04-30T17:03:39.852Z,1.30
2019-04-30T17:06:14.875Z,2.00
2019-04-30T17:08:50.061Z,2.53
2019-04-30T17:11:38.668Z,1.37
2019-04-30T17:14:11.380Z,1.63
2019-04-30T17:16:42.179Z,2.80
2019-04-30T17:19:11.461Z,14.70
2019-04-30T17:21:40.767Z,4.77
2019-04-30T17:24:10.107Z,15.33
2019-04-30T17:26:39.405Z,1.20
2019-04-30T17:29:09.630Z,1.43
2019-04-30T17:31:39.003Z,4.70
2019-04-30T17:34:08.755Z,2.40
2019-04-30T17:36:39.682Z,2.93
2019-04-30T17:39:12.745Z,1.37
2019-04-30T17:41:42.058Z,1.93
2019-04-30T17:44:11.370Z,2.43
2019-04-30T17:46:40.692Z,1.20
2019-04-30T17:49:10.164Z,2.30
2019-04-30T17:51:39.463Z,2.30
2019-04-30T17:54:14.897Z,3.07
2019-04-30T17:56:45.436Z,2.33
2019-04-30T17:59:14.964Z,2.57
2019-04-30T18:01:49.636Z,1.10
2019-04-30T18:04:22.095Z,2.70
2019-04-30T18:06:51.526Z,1.90
2019-04-30T18:09:21.110Z,2.03
2019-04-30T18:11:50.384Z,3.53
2019-04-30T18:14:23.694Z,2.50
2019-04-30T18:16:53.017Z,1.37
2019-04-30T18:19:46.756Z,3.30
2019-04-30T18:22:36.188Z,1.60
2019-04-30T18:25:12.301Z,2.83
2019-04-30T18:27:49.474Z,3.40
2019-04-30T18:30:21.348Z,19.67
2019-04-30T18:32:50.680Z,4.63
2019-04-30T18:35:20.343Z,3.20
2019-04-30T18:37:49.771Z,1.87
2019-04-30T18:40:19.047Z,1.67
2019-04-30T18:42:49.473Z,3.40
2019-04-30T18:45:19.424Z,10.37
2019-04-30T18:47:49.073Z,4.03
2019-04-30T18:50:18.637Z,2.10
2019-04-30T18:52:50.671Z,3.83
2019-04-30T18:55:22.965Z,3.23
2019-04-30T18:57:56.852Z,2.63
2019-04-30T19:00:31.077Z,2.40
2019-04-30T19:03:00.415Z,1.53
2019-04-30T19:05:31.193Z,2.00
2019-04-30T19:08:05.658Z,2.50
2019-04-30T19:11:04.841Z,2.90
2019-04-30T19:13:56.228Z,3.93
2019-04-30T19:16:59.788Z,2.70
2019-04-30T19:19:40.302Z,2.40
2019-04-30T19:22:09.418Z,3.57
2019-04-30T19:24:38.669Z,2.80
2019-04-30T19:27:08.663Z,2.27
2019-04-30T19:29:39.218Z,3.17
2019-04-30T19:32:09.428Z,4.50
2019-04-30T19:34:39.099Z,3.97
2019-04-30T19:37:08.752Z,4.40
2019-04-30T19:39:39.245Z,3.70
2019-04-30T19:42:09.066Z,2.23
2019-04-30T19:44:39.476Z,1.90
2019-04-30T19:47:09.352Z,3.10
2019-04-30T19:49:40.747Z,3.63
2019-04-30T19:52:11.854Z,6.20
2019-04-30T19:54:42.323Z,4.47
2019-04-30T19:57:13.458Z,2.53
2019-04-30T19:59:42.732Z,1.80
2019-04-30T20:02:13.490Z,6.40
2019-04-30T20:04:42.769Z,3.60
2019-04-30T20:07:12.063Z,2.27
2019-04-30T20:09:43.123Z,3.90
2019-04-30T20:12:12.418Z,4.77
2019-04-30T20:14:41.720Z,2.93
2019-04-30T20:17:13.206Z,5.50
2019-04-30T20:19:42.984Z,6.13
2019-04-30T20:22:12.785Z,5.87
2019-04-30T20:24:42.312Z,4.00
2019-04-30T20:27:11.764Z,9.40
2019-04-30T20:29:41.107Z,5.00
2019-04-30T20:32:10.393Z,4.83
2019-04-30T20:34:39.987Z,12.77
2019-04-30T20:37:09.323Z,13.03
2019-04-30T20:39:49.293Z,12.63
2019-04-30T20:42:18.545Z,12.47
2019-04-30T20:44:48.990Z,12.47
2019-04-30T20:47:20.878Z,13.57
2019-04-30T20:49:49.452Z,16.03
2019-04-30T20:52:20.599Z,5.47
2019-04-30T20:54:49.787Z,7.73
2019-04-30T20:57:19.938Z,4.57
2019-04-30T20:59:49.367Z,4.50
2019-04-30T21:02:20.450Z,6.20
2019-04-30T21:04:49.752Z,3.53
2019-04-30T21:07:19.551Z,4.83
2019-04-30T21:09:48.922Z,5.67
2019-04-30T21:12:18.829Z,5.20
2019-04-30T21:14:48.591Z,4.83
2019-04-30T21:17:18.014Z,3.53
2019-04-30T21:19:47.280Z,4.63
2019-04-30T21:22:16.657Z,4.87
2019-04-30T21:24:47.021Z,5.23
2019-04-30T21:27:16.297Z,5.13
2019-04-30T21:29:45.589Z,4.27
2019-04-30T21:32:21.320Z,6.53
2019-04-30T21:34:54.477Z,5.90
2019-04-30T21:37:23.856Z,6.73
2019-04-30T21:39:53.263Z,5.33
2019-04-30T21:42:22.609Z,4.53
2019-04-30T21:44:52.017Z,7.30
2019-04-30T21:47:21.775Z,6.13
2019-04-30T21:49:51.072Z,5.47
2019-04-30T21:52:20.383Z,6.07
2019-04-30T21:54:51.188Z,6.87
2019-04-30T21:57:21.748Z,6.73
2019-04-30T21:59:50.997Z,4.70
2019-04-30T22:02:20.430Z,4.67
2019-04-30T22:04:49.911Z,4.87
2019-04-30T22:07:19.597Z,6.00
2019-04-30T22:09:48.961Z,5.17
2019-04-30T22:12:19.165Z,6.87
2019-04-30T22:14:48.591Z,4.23
2019-04-30T22:17:19.320Z,8.17
2019-04-30T22:19:51.641Z,8.50
2019-04-30T22:22:22.321Z,5.50
2019-04-30T22:24:51.592Z,6.87
2019-04-30T22:27:20.950Z,6.07
2019-04-30T22:29:50.230Z,5.67
2019-04-30T22:32:19.491Z,5.90
2019-04-30T22:34:48.839Z,5.07
2019-04-30T22:37:19.546Z,6.53
2019-04-30T22:39:55.807Z,5.60
2019-04-30T22:42:34.298Z,6.90
2019-04-30T22:45:07.192Z,7.33
2019-04-30T22:47:37.962Z,5.30
2019-04-30T22:50:08.937Z,6.30
2019-04-30T22:52:38.237Z,6.63
2019-04-30T22:55:07.709Z,7.70
2019-04-30T22:57:38.093Z,6.27
2019-04-30T23:00:10.097Z,5.83
2019-04-30T23:02:49.155Z,5.50
2019-04-30T23:05:18.728Z,7.07
2019-04-30T23:07:48.021Z,5.73
2019-04-30T23:10:18.380Z,6.97
2019-04-30T23:12:47.884Z,5.47
2019-04-30T23:15:19.508Z,8.07
2019-04-30T23:17:49.068Z,4.90
2019-04-30T23:20:18.324Z,4.93
2019-04-30T23:22:47.585Z,6.70
2019-04-30T23:25:17.083Z,5.90
2019-04-30T23:27:49.244Z,5.43
2019-04-30T23:30:19.862Z,5.70
2019-04-30T23:32:50.113Z,5.67
2019-04-30T23:35:19.381Z,5.20
2019-04-30T23:37:48.646Z,4.90
2019-04-30T23:40:27.120Z,4.63
2019-04-30T23:42:57.986Z,4.97
2019-04-30T23:45:27.457Z,6.80
2019-04-30T23:47:56.739Z,5.97
2019-04-30T23:50:26.034Z,4.53
2019-04-30T23:52:57.106Z,4.07
2019-04-30T23:55:26.374Z,5.90
2019-04-30T23:57:55.679Z,4.27
